createdAt,value
2022-10-31T00:03:23.827Z,9.05
2022-10-31T00:08:25.133Z,9.03
2022-10-31T00:13:26.517Z,9.01
2022-10-31T00:18:27.833Z,8.99
2022-10-31T00:23:29.247Z,8.97
2022-10-31T00:28:33.760Z,9.02
2022-10-31T00:33:37.500Z,8.97
2022-10-31T00:38:38.792Z,8.95
2022-10-31T00:43:40.087Z,8.90
2022-10-31T00:48:41.593Z,8.87
2022-10-31T00:53:42.924Z,8.87
2022-10-31T00:58:44.240Z,8.83
2022-10-31T01:03:45.537Z,8.80
2022-10-31T01:08:47.752Z,8.79
2022-10-31T01:13:51.712Z,8.74
2022-10-31T01:18:53.637Z,8.75
2022-10-31T01:23:55.700Z,8.75
2022-10-31T01:28:58.482Z,8.70
2022-10-31T01:34:00.013Z,8.81
2022-10-31T01:39:08.807Z,8.81
2022-10-31T01:44:13.236Z,8.79
2022-10-31T01:49:29.934Z,8.80
2022-10-31T01:54:34.617Z,8.63
2022-10-31T01:59:40.717Z,8.57
2022-10-31T02:04:42.222Z,8.63
2022-10-31T02:09:44.216Z,8.63
2022-10-31T02:14:45.679Z,8.57
2022-10-31T02:19:46.960Z,8.54
2022-10-31T02:25:04.389Z,8.51
2022-10-31T02:30:08.083Z,8.45
2022-10-31T02:35:27.520Z,8.43
2022-10-31T02:40:34.389Z,8.43
2022-10-31T02:45:54.376Z,8.44
2022-10-31T02:50:57.872Z,8.32
2022-10-31T02:56:01.167Z,8.35
2022-10-31T03:01:11.536Z,8.34
2022-10-31T03:06:12.864Z,8.29
2022-10-31T03:11:14.436Z,8.34
2022-10-31T03:16:18.604Z,8.38
2022-10-31T03:21:22.703Z,8.36
2022-10-31T03:26:24.778Z,8.36
2022-10-31T03:31:30.149Z,8.32
2022-10-31T03:36:33.386Z,8.29
2022-10-31T03:41:38.880Z,8.21
2022-10-31T03:46:40.824Z,8.13
2022-10-31T03:51:46.528Z,8.13
2022-10-31T03:56:53.084Z,8.07
2022-10-31T04:01:57.975Z,8.03
2022-10-31T04:07:00.994Z,8.11
2022-10-31T04:12:04.403Z,8.08
2022-10-31T04:17:07.282Z,7.98
2022-10-31T04:22:08.603Z,7.95
2022-10-31T04:27:09.992Z,7.96
2022-10-31T04:32:11.357Z,7.95
2022-10-31T04:37:12.656Z,7.91
2022-10-31T04:42:13.993Z,7.88
2022-10-31T04:47:15.292Z,7.86
2022-10-31T04:52:16.592Z,7.83
2022-10-31T04:57:17.937Z,7.81
2022-10-31T05:02:19.237Z,7.78
2022-10-31T05:07:20.527Z,7.77
2022-10-31T05:12:21.851Z,7.71
2022-10-31T05:17:23.196Z,7.74
2022-10-31T05:22:24.520Z,7.78
2022-10-31T05:27:25.822Z,7.84
2022-10-31T05:32:27.140Z,7.81
2022-10-31T05:37:28.490Z,7.85
2022-10-31T05:42:29.822Z,7.84
2022-10-31T05:47:31.120Z,7.86
2022-10-31T05:52:32.640Z,7.90
2022-10-31T05:57:34.947Z,7.95
2022-10-31T06:02:36.334Z,7.89
2022-10-31T06:07:37.711Z,7.88
2022-10-31T06:12:39.008Z,7.94
2022-10-31T06:17:42.343Z,7.99
2022-10-31T06:22:43.683Z,7.97
2022-10-31T06:27:44.982Z,8.03
2022-10-31T06:32:46.538Z,8.12
2022-10-31T06:37:54.593Z,8.32
2022-10-31T06:42:59.784Z,8.54
2022-10-31T06:48:16.703Z,8.69
2022-10-31T06:53:18.786Z,8.89
2022-10-31T06:58:20.125Z,8.94
2022-10-31T07:03:21.527Z,9.12
2022-10-31T07:08:23.128Z,9.38
2022-10-31T07:13:27.946Z,9.52
2022-10-31T07:18:29.445Z,9.70
2022-10-31T07:23:30.831Z,9.78
2022-10-31T07:28:32.128Z,10.05
2022-10-31T07:33:33.489Z,10.26
2022-10-31T07:38:34.821Z,10.36
2022-10-31T07:43:36.135Z,10.53
2022-10-31T07:48:37.478Z,10.76
2022-10-31T07:53:38.784Z,10.90
2022-10-31T07:58:40.084Z,11.10
2022-10-31T08:03:41.412Z,11.22
2022-10-31T08:08:42.704Z,11.43
2022-10-31T08:13:44.023Z,11.73
2022-10-31T08:18:45.406Z,11.94
2022-10-31T08:23:46.706Z,11.78
2022-10-31T08:28:48.021Z,12.02
2022-10-31T08:33:49.595Z,12.18
2022-10-31T08:38:50.930Z,12.39
2022-10-31T08:43:52.315Z,12.43
2022-10-31T08:48:53.624Z,12.54
2022-10-31T08:53:55.002Z,12.91
2022-10-31T08:58:56.447Z,12.95
2022-10-31T09:03:57.764Z,13.04
2022-10-31T09:08:59.101Z,13.50
2022-10-31T09:14:00.394Z,13.77
2022-10-31T09:19:01.796Z,13.54
2022-10-31T09:24:03.128Z,14.09
2022-10-31T09:29:04.580Z,14.15
2022-10-31T09:34:05.944Z,14.15
2022-10-31T09:39:08.354Z,14.06
2022-10-31T09:44:16.386Z,14.33
2022-10-31T09:49:43.817Z,14.55
2022-10-31T09:54:51.098Z,14.68
2022-10-31T09:59:52.592Z,14.57
2022-10-31T10:04:58.039Z,15.20
2022-10-31T10:10:01.477Z,14.65
2022-10-31T10:15:29.710Z,14.72
2022-10-31T10:20:40.226Z,14.86
2022-10-31T10:25:41.858Z,15.07
2022-10-31T10:30:45.182Z,15.00
2022-10-31T10:35:50.101Z,15.16
2022-10-31T10:40:54.216Z,15.38
2022-10-31T10:46:32.439Z,15.27
2022-10-31T10:52:13.127Z,14.98
2022-10-31T10:57:21.821Z,15.38
2022-10-31T11:02:24.787Z,15.81
2022-10-31T11:07:26.098Z,15.35
2022-10-31T11:12:34.456Z,15.51
2022-10-31T11:17:40.189Z,15.58
2022-10-31T11:22:43.478Z,15.84
2022-10-31T11:27:44.785Z,15.99
2022-10-31T11:32:49.705Z,16.24
2022-10-31T11:37:52.175Z,16.27
2022-10-31T11:42:55.455Z,15.99
2022-10-31T11:47:59.843Z,16.38
2022-10-31T11:53:01.956Z,15.85
2022-10-31T11:58:04.275Z,16.09
2022-10-31T12:08:26.597Z,17.02
2022-10-31T12:13:46.645Z,17.16
2022-10-31T12:18:59.544Z,17.00
2022-10-31T12:24:03.738Z,17.45
2022-10-31T12:29:23.424Z,17.28
2022-10-31T12:34:34.021Z,16.86
2022-10-31T12:39:43.605Z,16.94
2022-10-31T12:45:03.672Z,16.95
2022-10-31T12:50:22.264Z,16.76
2022-10-31T12:55:41.082Z,16.56
2022-10-31T13:00:45.491Z,16.55
2022-10-31T13:05:49.399Z,16.91
2022-10-31T13:10:50.804Z,17.17
2022-10-31T13:15:54.751Z,17.40
2022-10-31T13:20:56.726Z,17.64
2022-10-31T13:25:59.772Z,18.17
2022-10-31T13:31:01.084Z,17.58
2022-10-31T13:36:02.373Z,17.27
2022-10-31T13:41:22.120Z,17.21
2022-10-31T13:46:24.829Z,17.14
2022-10-31T13:51:30.989Z,17.22
2022-10-31T13:56:33.661Z,17.18
2022-10-31T14:01:35.575Z,16.86
2022-10-31T14:06:52.060Z,16.89
2022-10-31T14:11:54.388Z,17.17
2022-10-31T14:16:57.576Z,17.17
2022-10-31T14:21:59.053Z,17.23
2022-10-31T14:27:03.398Z,17.25
2022-10-31T14:32:20.591Z,17.21
2022-10-31T14:37:40.902Z,17.24
2022-10-31T14:42:42.284Z,17.42
2022-10-31T14:47:53.765Z,17.35
2022-10-31T14:52:57.647Z,17.27
2022-10-31T14:58:05.104Z,17.22
2022-10-31T15:03:06.380Z,17.12
2022-10-31T15:08:13.991Z,16.90
2022-10-31T15:13:18.725Z,16.79
2022-10-31T15:18:27.782Z,16.67
2022-10-31T15:23:29.927Z,16.67
2022-10-31T15:28:32.369Z,16.55
2022-10-31T15:33:46.998Z,16.38
2022-10-31T15:38:50.500Z,16.11
2022-10-31T15:43:52.211Z,15.91
2022-10-31T15:48:53.848Z,15.79
2022-10-31T15:53:56.418Z,15.67
2022-10-31T15:58:58.945Z,15.55
2022-10-31T16:04:00.512Z,15.43
2022-10-31T16:09:02.473Z,15.26
2022-10-31T16:14:14.697Z,14.94
2022-10-31T16:19:27.079Z,14.54
2022-10-31T16:24:44.582Z,14.28
2022-10-31T16:29:48.824Z,13.96
2022-10-31T16:34:58.101Z,13.63
2022-10-31T16:39:59.413Z,13.40
2022-10-31T16:45:00.868Z,13.30
2022-10-31T16:50:02.168Z,13.14
2022-10-31T16:55:03.596Z,12.99
2022-10-31T17:00:05.368Z,12.65
2022-10-31T17:05:06.791Z,12.53
2022-10-31T17:10:08.841Z,12.40
2022-10-31T17:15:18.950Z,12.25
2022-10-31T17:20:22.340Z,12.09
2022-10-31T17:25:25.307Z,12.02
2022-10-31T17:30:27.053Z,11.86
2022-10-31T17:35:28.417Z,11.78
2022-10-31T17:40:29.749Z,11.68
2022-10-31T17:45:31.438Z,11.60
2022-10-31T17:50:32.839Z,11.44
2022-10-31T17:55:36.239Z,11.33
2022-10-31T18:00:39.051Z,11.26
2022-10-31T18:05:40.382Z,11.15
2022-10-31T18:10:41.923Z,11.12
2022-10-31T18:15:43.220Z,11.09
2022-10-31T18:20:45.456Z,11.36
2022-10-31T18:25:46.753Z,12.03
2022-10-31T18:30:48.065Z,12.21
2022-10-31T18:35:49.381Z,12.49
2022-10-31T18:40:51.411Z,12.33
2022-10-31T18:45:57.680Z,11.95
2022-10-31T18:51:06.578Z,11.58
2022-10-31T18:56:08.711Z,11.75
2022-10-31T19:01:11.143Z,12.05
2022-10-31T19:06:12.527Z,12.28
2022-10-31T19:11:14.518Z,12.58
2022-10-31T19:16:16.245Z,12.66
2022-10-31T19:21:17.869Z,12.68
2022-10-31T19:26:19.510Z,12.58
2022-10-31T19:31:20.931Z,12.62
2022-10-31T19:36:22.543Z,13.07
2022-10-31T19:41:26.062Z,12.98
2022-10-31T19:46:48.144Z,12.95
2022-10-31T19:51:49.304Z,12.89
2022-10-31T19:56:50.696Z,13.16
2022-10-31T20:01:52.021Z,13.42
2022-10-31T20:06:53.441Z,13.40
2022-10-31T20:11:54.783Z,13.36
2022-10-31T20:16:56.129Z,13.25
2022-10-31T20:21:57.447Z,13.20
2022-10-31T20:26:59.083Z,13.28
2022-10-31T20:32:00.412Z,13.18
2022-10-31T20:37:01.798Z,13.15
2022-10-31T20:42:03.702Z,13.34
2022-10-31T20:47:06.562Z,13.26
2022-10-31T20:52:07.874Z,13.32
2022-10-31T20:57:09.250Z,13.31
2022-10-31T21:02:10.711Z,13.31
2022-10-31T21:07:12.209Z,13.16
2022-10-31T21:12:13.518Z,12.79
2022-10-31T21:17:14.811Z,12.45
2022-10-31T21:22:16.114Z,12.48
2022-10-31T21:27:17.421Z,12.46
2022-10-31T21:32:18.738Z,12.15
2022-10-31T21:37:20.043Z,12.03
2022-10-31T21:42:23.141Z,11.81
2022-10-31T21:47:24.459Z,11.68
2022-10-31T21:52:25.779Z,11.56
2022-10-31T21:57:27.096Z,11.52
2022-10-31T22:02:28.403Z,11.44
2022-10-31T22:07:31.301Z,11.58
2022-10-31T22:12:32.614Z,11.69
2022-10-31T22:17:33.909Z,11.65
2022-10-31T22:22:35.221Z,11.71
2022-10-31T22:27:38.586Z,11.98
2022-10-31T22:32:39.901Z,12.19
2022-10-31T22:37:41.200Z,12.31
2022-10-31T22:42:42.502Z,12.33
2022-10-31T22:47:43.852Z,12.21
2022-10-31T22:52:45.164Z,12.00
2022-10-31T22:57:46.473Z,11.91
2022-10-31T23:02:47.790Z,12.10
2022-10-31T23:07:49.062Z,12.44
2022-10-31T23:13:08.834Z,12.66
2022-10-31T23:18:18.865Z,12.72
2022-10-31T23:23:38.038Z,12.73
2022-10-31T23:28:39.363Z,12.72
2022-10-31T23:33:40.731Z,12.75
2022-10-31T23:38:42.566Z,12.79
2022-10-31T23:43:43.894Z,12.79
2022-10-31T23:48:48.039Z,12.84
2022-10-31T23:53:49.378Z,12.88
2022-10-31T23:58:50.897Z,12.88
